sensor_id;sensor_type;location;lat;lon;timestamp;P1;durP1;ratioP1;P2;durP2;ratioP2
69769;SDS011;57282;52.514;13.458;2022-12-04T00:01:18;57.90;;;20.90;;
69769;SDS011;57282;52.514;13.458;2022-12-04T00:03:50;73.33;;;22.37;;
69769;SDS011;57282;52.514;13.458;2022-12-04T00:06:19;56.22;;;19.40;;
69769;SDS011;57282;52.514;13.458;2022-12-04T00:08:48;60.60;;;21.27;;
69769;SDS011;57282;52.514;13.458;2022-12-04T00:11:17;58.13;;;20.20;;
69769;SDS011;57282;52.514;13.458;2022-12-04T00:13:46;60.33;;;20.98;;
69769;SDS011;57282;52.514;13.458;2022-12-04T00:16:16;63.53;;;20.00;;
69769;SDS011;57282;52.514;13.458;2022-12-04T00:18:44;59.80;;;20.85;;
69769;SDS011;57282;52.514;13.458;2022-12-04T00:21:12;63.17;;;21.55;;
69769;SDS011;57282;52.514;13.458;2022-12-04T00:23:42;60.58;;;20.08;;
69769;SDS011;57282;52.514;13.458;2022-12-04T00:26:10;65.95;;;20.55;;
69769;SDS011;57282;52.514;13.458;2022-12-04T00:28:39;62.93;;;22.10;;
69769;SDS011;57282;52.514;13.458;2022-12-04T00:31:08;59.28;;;21.10;;
69769;SDS011;57282;52.514;13.458;2022-12-04T00:33:38;58.10;;;20.45;;
69769;SDS011;57282;52.514;13.458;2022-12-04T00:36:07;72.63;;;22.90;;
69769;SDS011;57282;52.514;13.458;2022-12-04T00:38:37;63.65;;;23.00;;
69769;SDS011;57282;52.514;13.458;2022-12-04T00:41:06;75.73;;;24.27;;
69769;SDS011;57282;52.514;13.458;2022-12-04T00:43:34;70.65;;;23.75;;
69769;SDS011;57282;52.514;13.458;2022-12-04T00:46:00;163.20;;;64.28;;
69769;SDS011;57282;52.514;13.458;2022-12-04T00:48:27;186.23;;;70.13;;
69769;SDS011;57282;52.514;13.458;2022-12-04T00:50:55;84.90;;;27.92;;
69769;SDS011;57282;52.514;13.458;2022-12-04T00:53:28;64.00;;;20.87;;
69769;SDS011;57282;52.514;13.458;2022-12-04T00:55:55;60.47;;;20.25;;
69769;SDS011;57282;52.514;13.458;2022-12-04T00:58:21;61.65;;;20.58;;
69769;SDS011;57282;52.514;13.458;2022-12-04T01:00:48;64.93;;;21.83;;
69769;SDS011;57282;52.514;13.458;2022-12-04T01:03:15;64.32;;;21.52;;
69769;SDS011;57282;52.514;13.458;2022-12-04T01:05:42;71.40;;;22.20;;
69769;SDS011;57282;52.514;13.458;2022-12-04T01:08:12;70.28;;;20.83;;
69769;SDS011;57282;52.514;13.458;2022-12-04T01:10:40;69.80;;;21.33;;
69769;SDS011;57282;52.514;13.458;2022-12-04T01:13:07;69.18;;;22.80;;
69769;SDS011;57282;52.514;13.458;2022-12-04T01:15:36;62.50;;;22.58;;
69769;SDS011;57282;52.514;13.458;2022-12-04T01:18:06;59.67;;;20.77;;
69769;SDS011;57282;52.514;13.458;2022-12-04T01:20:33;65.68;;;22.05;;
69769;SDS011;57282;52.514;13.458;2022-12-04T01:23:00;67.78;;;22.45;;
69769;SDS011;57282;52.514;13.458;2022-12-04T01:25:28;60.90;;;21.70;;
69769;SDS011;57282;52.514;13.458;2022-12-04T01:27:55;66.85;;;21.98;;
69769;SDS011;57282;52.514;13.458;2022-12-04T01:30:21;64.17;;;21.33;;
69769;SDS011;57282;52.514;13.458;2022-12-04T01:32:48;75.43;;;23.17;;
69769;SDS011;57282;52.514;13.458;2022-12-04T01:35:15;68.75;;;22.08;;
69769;SDS011;57282;52.514;13.458;2022-12-04T01:37:41;69.60;;;22.25;;
69769;SDS011;57282;52.514;13.458;2022-12-04T01:40:09;67.75;;;22.38;;
69769;SDS011;57282;52.514;13.458;2022-12-04T01:42:42;68.30;;;23.10;;
69769;SDS011;57282;52.514;13.458;2022-12-04T01:45:30;68.20;;;22.45;;
69769;SDS011;57282;52.514;13.458;2022-12-04T01:48:06;69.47;;;21.38;;
69769;SDS011;57282;52.514;13.458;2022-12-04T01:50:44;64.85;;;22.38;;
69769;SDS011;57282;52.514;13.458;2022-12-04T01:53:17;66.03;;;21.80;;
69769;SDS011;57282;52.514;13.458;2022-12-04T01:55:46;68.73;;;23.20;;
69769;SDS011;57282;52.514;13.458;2022-12-04T01:58:15;65.63;;;20.83;;
69769;SDS011;57282;52.514;13.458;2022-12-04T02:00:48;65.90;;;22.15;;
69769;SDS011;57282;52.514;13.458;2022-12-04T02:03:20;77.32;;;24.25;;
69769;SDS011;57282;52.514;13.458;2022-12-04T02:05:47;63.05;;;22.25;;
69769;SDS011;57282;52.514;13.458;2022-12-04T02:08:14;72.73;;;23.80;;
69769;SDS011;57282;52.514;13.458;2022-12-04T02:10:42;66.18;;;22.52;;
69769;SDS011;57282;52.514;13.458;2022-12-04T02:13:24;70.18;;;22.67;;
69769;SDS011;57282;52.514;13.458;2022-12-04T02:15:59;64.78;;;22.58;;
69769;SDS011;57282;52.514;13.458;2022-12-04T02:18:45;71.00;;;23.38;;
69769;SDS011;57282;52.514;13.458;2022-12-04T02:21:42;71.60;;;23.13;;
69769;SDS011;57282;52.514;13.458;2022-12-04T02:24:36;70.18;;;22.35;;
69769;SDS011;57282;52.514;13.458;2022-12-04T02:30:23;63.20;;;21.42;;
69769;SDS011;57282;52.514;13.458;2022-12-04T02:32:55;67.15;;;22.23;;
69769;SDS011;57282;52.514;13.458;2022-12-04T02:35:30;71.07;;;22.03;;
69769;SDS011;57282;52.514;13.458;2022-12-04T02:38:05;61.92;;;21.02;;
69769;SDS011;57282;52.514;13.458;2022-12-04T02:40:44;66.38;;;23.30;;
69769;SDS011;57282;52.514;13.458;2022-12-04T02:43:19;68.15;;;23.40;;
69769;SDS011;57282;52.514;13.458;2022-12-04T02:45:54;71.32;;;21.92;;
69769;SDS011;57282;52.514;13.458;2022-12-04T02:48:27;69.33;;;22.40;;
69769;SDS011;57282;52.514;13.458;2022-12-04T02:50:59;70.93;;;23.30;;
69769;SDS011;57282;52.514;13.458;2022-12-04T02:53:30;65.85;;;22.42;;
69769;SDS011;57282;52.514;13.458;2022-12-04T02:56:04;77.97;;;23.27;;
69769;SDS011;57282;52.514;13.458;2022-12-04T02:58:36;73.47;;;24.00;;
69769;SDS011;57282;52.514;13.458;2022-12-04T03:01:11;78.57;;;24.63;;
69769;SDS011;57282;52.514;13.458;2022-12-04T03:03:48;73.68;;;22.13;;
69769;SDS011;57282;52.514;13.458;2022-12-04T03:06:22;72.68;;;23.08;;
69769;SDS011;57282;52.514;13.458;2022-12-04T03:08:54;66.80;;;22.92;;
69769;SDS011;57282;52.514;13.458;2022-12-04T03:11:27;65.10;;;23.15;;
69769;SDS011;57282;52.514;13.458;2022-12-04T03:14:03;70.37;;;22.47;;
69769;SDS011;57282;52.514;13.458;2022-12-04T03:16:38;70.00;;;23.10;;
69769;SDS011;57282;52.514;13.458;2022-12-04T03:19:08;70.70;;;23.55;;
69769;SDS011;57282;52.514;13.458;2022-12-04T03:21:43;71.63;;;22.70;;
69769;SDS011;57282;52.514;13.458;2022-12-04T03:24:24;64.68;;;21.63;;
69769;SDS011;57282;52.514;13.458;2022-12-04T03:26:58;64.57;;;20.10;;
69769;SDS011;57282;52.514;13.458;2022-12-04T03:29:37;72.32;;;22.30;;
69769;SDS011;57282;52.514;13.458;2022-12-04T03:32:10;66.32;;;24.23;;
69769;SDS011;57282;52.514;13.458;2022-12-04T03:34:43;65.53;;;21.45;;
69769;SDS011;57282;52.514;13.458;2022-12-04T03:37:25;62.38;;;22.33;;
69769;SDS011;57282;52.514;13.458;2022-12-04T03:40:02;66.60;;;21.27;;
69769;SDS011;57282;52.514;13.458;2022-12-04T03:42:40;71.15;;;22.80;;
69769;SDS011;57282;52.514;13.458;2022-12-04T03:45:16;60.95;;;20.05;;
69769;SDS011;57282;52.514;13.458;2022-12-04T03:47:51;66.82;;;21.42;;
69769;SDS011;57282;52.514;13.458;2022-12-04T03:50:27;62.28;;;20.55;;
69769;SDS011;57282;52.514;13.458;2022-12-04T03:53:03;66.93;;;21.20;;
69769;SDS011;57282;52.514;13.458;2022-12-04T03:55:38;65.88;;;22.88;;
69769;SDS011;57282;52.514;13.458;2022-12-04T03:58:12;61.05;;;21.58;;
69769;SDS011;57282;52.514;13.458;2022-12-04T04:00:46;67.47;;;22.85;;
69769;SDS011;57282;52.514;13.458;2022-12-04T04:03:17;71.40;;;22.73;;
69769;SDS011;57282;52.514;13.458;2022-12-04T04:05:51;64.40;;;20.97;;
69769;SDS011;57282;52.514;13.458;2022-12-04T04:08:26;68.75;;;21.55;;
69769;SDS011;57282;52.514;13.458;2022-12-04T04:11:01;74.90;;;22.92;;
69769;SDS011;57282;52.514;13.458;2022-12-04T04:13:37;69.43;;;22.10;;
69769;SDS011;57282;52.514;13.458;2022-12-04T04:16:30;67.95;;;21.02;;
69769;SDS011;57282;52.514;13.458;2022-12-04T04:19:20;65.53;;;22.10;;
69769;SDS011;57282;52.514;13.458;2022-12-04T04:22:08;67.63;;;22.40;;
69769;SDS011;57282;52.514;13.458;2022-12-04T04:24:54;66.38;;;21.35;;
69769;SDS011;57282;52.514;13.458;2022-12-04T04:27:28;60.85;;;19.73;;
69769;SDS011;57282;52.514;13.458;2022-12-04T04:29:55;61.47;;;21.42;;
69769;SDS011;57282;52.514;13.458;2022-12-04T04:32:24;63.67;;;20.03;;
69769;SDS011;57282;52.514;13.458;2022-12-04T04:35:05;61.75;;;20.27;;
69769;SDS011;57282;52.514;13.458;2022-12-04T04:37:46;66.72;;;20.83;;
69769;SDS011;57282;52.514;13.458;2022-12-04T04:40:26;62.35;;;19.75;;
69769;SDS011;57282;52.514;13.458;2022-12-04T04:43:02;72.00;;;22.65;;
69769;SDS011;57282;52.514;13.458;2022-12-04T04:45:37;59.13;;;20.67;;
69769;SDS011;57282;52.514;13.458;2022-12-04T04:48:12;61.97;;;20.17;;
69769;SDS011;57282;52.514;13.458;2022-12-04T04:50:43;60.25;;;20.90;;
69769;SDS011;57282;52.514;13.458;2022-12-04T04:53:11;66.00;;;20.83;;
69769;SDS011;57282;52.514;13.458;2022-12-04T04:55:45;63.50;;;20.38;;
69769;SDS011;57282;52.514;13.458;2022-12-04T04:58:14;64.57;;;20.87;;
69769;SDS011;57282;52.514;13.458;2022-12-04T05:00:45;57.10;;;20.27;;
69769;SDS011;57282;52.514;13.458;2022-12-04T05:03:24;60.22;;;19.75;;
69769;SDS011;57282;52.514;13.458;2022-12-04T05:05:52;61.22;;;20.73;;
69769;SDS011;57282;52.514;13.458;2022-12-04T05:08:19;67.05;;;21.55;;
69769;SDS011;57282;52.514;13.458;2022-12-04T05:10:46;66.77;;;22.53;;
69769;SDS011;57282;52.514;13.458;2022-12-04T05:13:13;71.35;;;20.77;;
69769;SDS011;57282;52.514;13.458;2022-12-04T05:15:41;67.72;;;20.50;;
69769;SDS011;57282;52.514;13.458;2022-12-04T05:18:08;65.25;;;22.35;;
69769;SDS011;57282;52.514;13.458;2022-12-04T05:20:38;62.42;;;21.48;;
69769;SDS011;57282;52.514;13.458;2022-12-04T05:23:05;65.57;;;21.23;;
69769;SDS011;57282;52.514;13.458;2022-12-04T05:25:32;59.10;;;20.13;;
69769;SDS011;57282;52.514;13.458;2022-12-04T05:27:58;64.78;;;20.85;;
69769;SDS011;57282;52.514;13.458;2022-12-04T05:30:26;72.97;;;22.42;;
69769;SDS011;57282;52.514;13.458;2022-12-04T05:32:53;57.50;;;20.13;;
69769;SDS011;57282;52.514;13.458;2022-12-04T05:35:19;62.50;;;20.97;;
69769;SDS011;57282;52.514;13.458;2022-12-04T05:37:47;65.88;;;21.35;;
69769;SDS011;57282;52.514;13.458;2022-12-04T05:40:14;60.33;;;20.30;;
69769;SDS011;57282;52.514;13.458;2022-12-04T05:42:42;61.88;;;19.95;;
69769;SDS011;57282;52.514;13.458;2022-12-04T05:45:08;58.70;;;20.13;;
69769;SDS011;57282;52.514;13.458;2022-12-04T05:47:36;59.77;;;22.10;;
69769;SDS011;57282;52.514;13.458;2022-12-04T05:50:07;55.83;;;18.83;;
69769;SDS011;57282;52.514;13.458;2022-12-04T05:52:36;53.97;;;18.70;;
69769;SDS011;57282;52.514;13.458;2022-12-04T05:55:05;65.60;;;21.77;;
69769;SDS011;57282;52.514;13.458;2022-12-04T05:57:33;67.78;;;21.90;;
69769;SDS011;57282;52.514;13.458;2022-12-04T05:59:59;58.53;;;19.60;;
69769;SDS011;57282;52.514;13.458;2022-12-04T06:02:26;60.83;;;20.65;;
69769;SDS011;57282;52.514;13.458;2022-12-04T06:04:52;59.35;;;19.75;;
69769;SDS011;57282;52.514;13.458;2022-12-04T06:07:19;60.55;;;20.00;;
69769;SDS011;57282;52.514;13.458;2022-12-04T06:09:46;69.03;;;20.90;;
69769;SDS011;57282;52.514;13.458;2022-12-04T06:12:14;65.80;;;20.17;;
69769;SDS011;57282;52.514;13.458;2022-12-04T06:14:40;56.53;;;19.67;;
69769;SDS011;57282;52.514;13.458;2022-12-04T06:17:07;61.35;;;20.80;;
69769;SDS011;57282;52.514;13.458;2022-12-04T06:19:34;69.72;;;21.30;;
69769;SDS011;57282;52.514;13.458;2022-12-04T06:22:00;64.38;;;21.20;;
69769;SDS011;57282;52.514;13.458;2022-12-04T06:24:27;60.27;;;21.00;;
69769;SDS011;57282;52.514;13.458;2022-12-04T06:26:54;66.55;;;21.00;;
69769;SDS011;57282;52.514;13.458;2022-12-04T06:29:23;62.35;;;20.60;;
69769;SDS011;57282;52.514;13.458;2022-12-04T06:31:50;65.07;;;19.20;;
69769;SDS011;57282;52.514;13.458;2022-12-04T06:34:18;60.78;;;19.88;;
69769;SDS011;57282;52.514;13.458;2022-12-04T06:36:45;60.70;;;20.23;;
69769;SDS011;57282;52.514;13.458;2022-12-04T06:39:12;59.80;;;20.55;;
69769;SDS011;57282;52.514;13.458;2022-12-04T06:41:38;59.00;;;18.52;;
69769;SDS011;57282;52.514;13.458;2022-12-04T06:44:05;63.30;;;20.65;;
69769;SDS011;57282;52.514;13.458;2022-12-04T06:46:33;65.07;;;20.80;;
69769;SDS011;57282;52.514;13.458;2022-12-04T06:49:01;63.97;;;19.63;;
69769;SDS011;57282;52.514;13.458;2022-12-04T06:51:29;63.92;;;20.42;;
69769;SDS011;57282;52.514;13.458;2022-12-04T06:53:58;66.57;;;21.42;;
69769;SDS011;57282;52.514;13.458;2022-12-04T06:56:28;62.80;;;21.45;;
69769;SDS011;57282;52.514;13.458;2022-12-04T06:58:58;62.97;;;20.33;;
69769;SDS011;57282;52.514;13.458;2022-12-04T07:01:28;71.43;;;21.40;;
69769;SDS011;57282;52.514;13.458;2022-12-04T07:03:58;67.65;;;22.00;;
69769;SDS011;57282;52.514;13.458;2022-12-04T07:06:28;69.32;;;21.17;;
69769;SDS011;57282;52.514;13.458;2022-12-04T07:08:59;62.70;;;20.17;;
69769;SDS011;57282;52.514;13.458;2022-12-04T07:11:27;58.60;;;19.00;;
69769;SDS011;57282;52.514;13.458;2022-12-04T07:13:55;59.30;;;21.30;;
69769;SDS011;57282;52.514;13.458;2022-12-04T07:16:23;61.30;;;19.52;;
69769;SDS011;57282;52.514;13.458;2022-12-04T07:18:52;61.10;;;19.35;;
69769;SDS011;57282;52.514;13.458;2022-12-04T07:21:22;69.57;;;21.95;;
69769;SDS011;57282;52.514;13.458;2022-12-04T07:23:54;56.58;;;20.67;;
69769;SDS011;57282;52.514;13.458;2022-12-04T07:26:23;62.20;;;21.03;;
69769;SDS011;57282;52.514;13.458;2022-12-04T07:28:52;63.55;;;20.05;;
69769;SDS011;57282;52.514;13.458;2022-12-04T07:31:21;57.85;;;19.95;;
69769;SDS011;57282;52.514;13.458;2022-12-04T07:33:52;61.42;;;20.98;;
69769;SDS011;57282;52.514;13.458;2022-12-04T07:36:20;68.97;;;21.08;;
69769;SDS011;57282;52.514;13.458;2022-12-04T07:38:50;61.30;;;22.13;;
69769;SDS011;57282;52.514;13.458;2022-12-04T07:41:19;63.22;;;21.10;;
69769;SDS011;57282;52.514;13.458;2022-12-04T07:43:46;63.30;;;20.88;;
69769;SDS011;57282;52.514;13.458;2022-12-04T07:46:14;60.78;;;19.50;;
69769;SDS011;57282;52.514;13.458;2022-12-04T07:48:44;59.33;;;19.95;;
69769;SDS011;57282;52.514;13.458;2022-12-04T07:51:12;60.13;;;21.50;;
69769;SDS011;57282;52.514;13.458;2022-12-04T07:53:43;60.13;;;19.45;;
69769;SDS011;57282;52.514;13.458;2022-12-04T07:56:11;60.38;;;20.13;;
69769;SDS011;57282;52.514;13.458;2022-12-04T07:58:39;62.55;;;20.88;;
69769;SDS011;57282;52.514;13.458;2022-12-04T08:01:07;59.03;;;19.80;;
69769;SDS011;57282;52.514;13.458;2022-12-04T08:03:38;57.83;;;19.77;;
69769;SDS011;57282;52.514;13.458;2022-12-04T08:06:08;58.78;;;18.55;;
69769;SDS011;57282;52.514;13.458;2022-12-04T08:08:35;67.05;;;21.52;;
69769;SDS011;57282;52.514;13.458;2022-12-04T08:11:05;53.53;;;18.38;;
69769;SDS011;57282;52.514;13.458;2022-12-04T08:13:33;55.15;;;19.58;;
69769;SDS011;57282;52.514;13.458;2022-12-04T08:16:01;56.33;;;18.83;;
69769;SDS011;57282;52.514;13.458;2022-12-04T08:18:28;55.13;;;20.38;;
69769;SDS011;57282;52.514;13.458;2022-12-04T08:21:00;60.22;;;19.85;;
69769;SDS011;57282;52.514;13.458;2022-12-04T08:23:29;56.30;;;20.05;;
69769;SDS011;57282;52.514;13.458;2022-12-04T08:25:57;58.00;;;18.40;;
69769;SDS011;57282;52.514;13.458;2022-12-04T08:28:26;51.50;;;18.23;;
69769;SDS011;57282;52.514;13.458;2022-12-04T08:30:53;56.70;;;18.95;;
69769;SDS011;57282;52.514;13.458;2022-12-04T08:33:19;60.53;;;19.90;;
69769;SDS011;57282;52.514;13.458;2022-12-04T08:35:46;57.22;;;21.58;;
69769;SDS011;57282;52.514;13.458;2022-12-04T08:38:13;57.30;;;20.30;;
69769;SDS011;57282;52.514;13.458;2022-12-04T08:40:40;60.70;;;20.33;;
69769;SDS011;57282;52.514;13.458;2022-12-04T08:43:07;63.47;;;19.75;;
69769;SDS011;57282;52.514;13.458;2022-12-04T08:45:35;61.17;;;20.40;;
69769;SDS011;57282;52.514;13.458;2022-12-04T08:48:02;55.22;;;19.80;;
69769;SDS011;57282;52.514;13.458;2022-12-04T08:50:29;57.50;;;20.10;;
69769;SDS011;57282;52.514;13.458;2022-12-04T08:52:56;53.13;;;18.17;;
69769;SDS011;57282;52.514;13.458;2022-12-04T08:55:22;56.58;;;19.08;;
69769;SDS011;57282;52.514;13.458;2022-12-04T08:57:49;58.38;;;19.33;;
69769;SDS011;57282;52.514;13.458;2022-12-04T09:00:17;61.53;;;20.58;;
69769;SDS011;57282;52.514;13.458;2022-12-04T09:02:48;63.03;;;21.30;;
69769;SDS011;57282;52.514;13.458;2022-12-04T09:05:15;55.30;;;18.53;;
69769;SDS011;57282;52.514;13.458;2022-12-04T09:07:42;60.00;;;19.25;;
69769;SDS011;57282;52.514;13.458;2022-12-04T09:10:09;58.33;;;18.30;;
69769;SDS011;57282;52.514;13.458;2022-12-04T09:12:37;54.97;;;20.15;;
69769;SDS011;57282;52.514;13.458;2022-12-04T09:15:05;54.58;;;20.15;;
69769;SDS011;57282;52.514;13.458;2022-12-04T09:17:33;59.53;;;21.97;;
69769;SDS011;57282;52.514;13.458;2022-12-04T09:20:02;58.90;;;18.77;;
69769;SDS011;57282;52.514;13.458;2022-12-04T09:22:32;51.03;;;18.35;;
69769;SDS011;57282;52.514;13.458;2022-12-04T09:24:59;55.55;;;18.88;;
69769;SDS011;57282;52.514;13.458;2022-12-04T09:27:29;56.83;;;20.63;;
69769;SDS011;57282;52.514;13.458;2022-12-04T09:29:55;49.60;;;18.13;;
69769;SDS011;57282;52.514;13.458;2022-12-04T09:32:22;48.53;;;18.40;;
69769;SDS011;57282;52.514;13.458;2022-12-04T09:34:49;54.42;;;18.58;;
69769;SDS011;57282;52.514;13.458;2022-12-04T09:37:17;54.85;;;18.58;;
69769;SDS011;57282;52.514;13.458;2022-12-04T09:39:44;55.15;;;18.65;;
69769;SDS011;57282;52.514;13.458;2022-12-04T09:42:20;54.07;;;19.10;;
69769;SDS011;57282;52.514;13.458;2022-12-04T09:45:09;55.50;;;18.08;;
69769;SDS011;57282;52.514;13.458;2022-12-04T09:47:41;57.72;;;19.33;;
69769;SDS011;57282;52.514;13.458;2022-12-04T09:50:14;58.45;;;18.63;;
69769;SDS011;57282;52.514;13.458;2022-12-04T09:52:49;55.25;;;18.58;;
69769;SDS011;57282;52.514;13.458;2022-12-04T09:55:22;59.20;;;18.47;;
69769;SDS011;57282;52.514;13.458;2022-12-04T09:57:53;55.40;;;19.42;;
69769;SDS011;57282;52.514;13.458;2022-12-04T10:00:25;53.55;;;18.73;;
69769;SDS011;57282;52.514;13.458;2022-12-04T10:02:56;57.53;;;19.15;;
69769;SDS011;57282;52.514;13.458;2022-12-04T10:05:32;49.17;;;17.52;;
69769;SDS011;57282;52.514;13.458;2022-12-04T10:08:17;53.33;;;17.77;;
69769;SDS011;57282;52.514;13.458;2022-12-04T10:10:50;50.35;;;19.13;;
69769;SDS011;57282;52.514;13.458;2022-12-04T10:13:36;53.08;;;20.00;;
69769;SDS011;57282;52.514;13.458;2022-12-04T10:16:33;50.22;;;18.00;;
69769;SDS011;57282;52.514;13.458;2022-12-04T10:19:14;50.92;;;19.02;;
69769;SDS011;57282;52.514;13.458;2022-12-04T10:21:56;51.97;;;17.87;;
69769;SDS011;57282;52.514;13.458;2022-12-04T10:24:40;48.67;;;18.00;;
69769;SDS011;57282;52.514;13.458;2022-12-04T10:27:15;54.78;;;18.80;;
69769;SDS011;57282;52.514;13.458;2022-12-04T10:29:49;54.10;;;18.02;;
69769;SDS011;57282;52.514;13.458;2022-12-04T10:32:22;48.85;;;17.90;;
69769;SDS011;57282;52.514;13.458;2022-12-04T10:34:53;52.93;;;18.73;;
69769;SDS011;57282;52.514;13.458;2022-12-04T10:37:25;52.20;;;18.30;;
69769;SDS011;57282;52.514;13.458;2022-12-04T10:39:55;50.95;;;17.52;;
69769;SDS011;57282;52.514;13.458;2022-12-04T10:42:34;49.95;;;17.63;;
69769;SDS011;57282;52.514;13.458;2022-12-04T10:45:08;48.85;;;17.38;;
69769;SDS011;57282;52.514;13.458;2022-12-04T10:47:38;48.33;;;17.20;;
69769;SDS011;57282;52.514;13.458;2022-12-04T10:50:12;50.63;;;16.95;;
69769;SDS011;57282;52.514;13.458;2022-12-04T10:52:42;49.08;;;18.73;;
69769;SDS011;57282;52.514;13.458;2022-12-04T10:55:10;54.90;;;17.75;;
69769;SDS011;57282;52.514;13.458;2022-12-04T10:57:39;50.50;;;18.95;;
69769;SDS011;57282;52.514;13.458;2022-12-04T11:00:22;48.47;;;17.07;;
69769;SDS011;57282;52.514;13.458;2022-12-04T11:02:52;50.17;;;17.88;;
69769;SDS011;57282;52.514;13.458;2022-12-04T11:05:23;59.42;;;18.67;;
69769;SDS011;57282;52.514;13.458;2022-12-04T11:07:53;48.92;;;16.65;;
69769;SDS011;57282;52.514;13.458;2022-12-04T11:10:25;55.63;;;17.13;;
69769;SDS011;57282;52.514;13.458;2022-12-04T11:13:00;49.50;;;18.10;;
69769;SDS011;57282;52.514;13.458;2022-12-04T11:15:33;40.55;;;15.68;;
69769;SDS011;57282;52.514;13.458;2022-12-04T11:18:07;51.88;;;18.48;;
69769;SDS011;57282;52.514;13.458;2022-12-04T11:20:35;48.38;;;18.20;;
69769;SDS011;57282;52.514;13.458;2022-12-04T11:23:01;50.33;;;18.02;;
69769;SDS011;57282;52.514;13.458;2022-12-04T11:25:33;47.77;;;17.03;;
69769;SDS011;57282;52.514;13.458;2022-12-04T11:28:11;48.03;;;17.80;;
69769;SDS011;57282;52.514;13.458;2022-12-04T11:30:46;49.35;;;17.15;;
69769;SDS011;57282;52.514;13.458;2022-12-04T11:33:16;45.22;;;17.48;;
69769;SDS011;57282;52.514;13.458;2022-12-04T11:35:49;46.10;;;17.02;;
69769;SDS011;57282;52.514;13.458;2022-12-04T11:38:21;44.93;;;17.27;;
69769;SDS011;57282;52.514;13.458;2022-12-04T11:40:54;52.97;;;18.02;;
69769;SDS011;57282;52.514;13.458;2022-12-04T11:43:26;47.58;;;16.30;;
69769;SDS011;57282;52.514;13.458;2022-12-04T11:45:54;49.80;;;17.63;;
69769;SDS011;57282;52.514;13.458;2022-12-04T11:48:23;53.85;;;18.48;;
69769;SDS011;57282;52.514;13.458;2022-12-04T11:50:55;50.03;;;17.83;;
69769;SDS011;57282;52.514;13.458;2022-12-04T11:53:34;46.53;;;17.23;;
69769;SDS011;57282;52.514;13.458;2022-12-04T11:56:16;45.50;;;17.15;;
69769;SDS011;57282;52.514;13.458;2022-12-04T11:58:56;49.65;;;18.67;;
69769;SDS011;57282;52.514;13.458;2022-12-04T12:02:01;52.15;;;18.25;;
69769;SDS011;57282;52.514;13.458;2022-12-04T12:04:56;48.07;;;17.60;;
69769;SDS011;57282;52.514;13.458;2022-12-04T12:07:44;45.92;;;16.80;;
69769;SDS011;57282;52.514;13.458;2022-12-04T12:10:25;44.75;;;16.50;;
69769;SDS011;57282;52.514;13.458;2022-12-04T12:13:03;48.88;;;16.88;;
69769;SDS011;57282;52.514;13.458;2022-12-04T12:15:40;47.60;;;17.25;;
69769;SDS011;57282;52.514;13.458;2022-12-04T12:18:28;51.63;;;16.73;;
69769;SDS011;57282;52.514;13.458;2022-12-04T12:21:12;50.35;;;17.48;;
69769;SDS011;57282;52.514;13.458;2022-12-04T12:23:49;46.10;;;16.70;;
69769;SDS011;57282;52.514;13.458;2022-12-04T12:26:33;48.92;;;15.80;;
69769;SDS011;57282;52.514;13.458;2022-12-04T12:29:18;47.72;;;15.50;;
69769;SDS011;57282;52.514;13.458;2022-12-04T12:35:04;52.42;;;17.13;;
69769;SDS011;57282;52.514;13.458;2022-12-04T12:37:45;48.17;;;18.13;;
69769;SDS011;57282;52.514;13.458;2022-12-04T12:40:22;48.70;;;18.30;;
69769;SDS011;57282;52.514;13.458;2022-12-04T12:42:59;42.45;;;16.65;;
69769;SDS011;57282;52.514;13.458;2022-12-04T12:45:34;48.77;;;17.43;;
69769;SDS011;57282;52.514;13.458;2022-12-04T12:48:15;49.60;;;16.98;;
69769;SDS011;57282;52.514;13.458;2022-12-04T12:50:54;46.53;;;17.25;;
69769;SDS011;57282;52.514;13.458;2022-12-04T12:53:30;45.65;;;17.52;;
69769;SDS011;57282;52.514;13.458;2022-12-04T12:56:04;48.70;;;16.90;;
69769;SDS011;57282;52.514;13.458;2022-12-04T12:58:35;47.40;;;17.10;;
69769;SDS011;57282;52.514;13.458;2022-12-04T13:01:11;50.78;;;17.75;;
69769;SDS011;57282;52.514;13.458;2022-12-04T13:03:48;49.38;;;17.63;;
69769;SDS011;57282;52.514;13.458;2022-12-04T13:06:25;50.90;;;17.80;;
69769;SDS011;57282;52.514;13.458;2022-12-04T13:09:01;47.28;;;18.33;;
69769;SDS011;57282;52.514;13.458;2022-12-04T13:11:34;44.63;;;16.90;;
69769;SDS011;57282;52.514;13.458;2022-12-04T13:14:02;49.28;;;19.02;;
69769;SDS011;57282;52.514;13.458;2022-12-04T13:16:32;51.08;;;16.98;;
69769;SDS011;57282;52.514;13.458;2022-12-04T13:19:06;47.92;;;17.38;;
69769;SDS011;57282;52.514;13.458;2022-12-04T13:21:43;49.33;;;17.67;;
69769;SDS011;57282;52.514;13.458;2022-12-04T13:27:30;46.88;;;17.17;;
69769;SDS011;57282;52.514;13.458;2022-12-04T13:30:12;49.80;;;17.63;;
69769;SDS011;57282;52.514;13.458;2022-12-04T13:36:07;53.22;;;17.13;;
69769;SDS011;57282;52.514;13.458;2022-12-04T13:39:07;51.33;;;17.67;;
69769;SDS011;57282;52.514;13.458;2022-12-04T13:42:17;51.20;;;19.05;;
69769;SDS011;57282;52.514;13.458;2022-12-04T13:44:53;46.42;;;17.35;;
69769;SDS011;57282;52.514;13.458;2022-12-04T13:47:28;49.55;;;17.77;;
69769;SDS011;57282;52.514;13.458;2022-12-04T13:50:24;45.22;;;16.60;;
69769;SDS011;57282;52.514;13.458;2022-12-04T13:52:55;52.50;;;17.17;;
69769;SDS011;57282;52.514;13.458;2022-12-04T13:55:23;53.10;;;18.23;;
69769;SDS011;57282;52.514;13.458;2022-12-04T13:57:55;53.65;;;17.75;;
69769;SDS011;57282;52.514;13.458;2022-12-04T14:00:24;50.00;;;18.10;;
69769;SDS011;57282;52.514;13.458;2022-12-04T14:02:56;52.60;;;18.42;;
69769;SDS011;57282;52.514;13.458;2022-12-04T14:05:30;51.33;;;17.73;;
69769;SDS011;57282;52.514;13.458;2022-12-04T14:08:06;55.33;;;19.25;;
69769;SDS011;57282;52.514;13.458;2022-12-04T14:10:55;54.30;;;18.40;;
69769;SDS011;57282;52.514;13.458;2022-12-04T14:13:27;53.00;;;18.70;;
69769;SDS011;57282;52.514;13.458;2022-12-04T14:16:08;56.05;;;18.63;;
69769;SDS011;57282;52.514;13.458;2022-12-04T14:18:47;55.80;;;17.00;;
69769;SDS011;57282;52.514;13.458;2022-12-04T14:21:19;64.80;;;19.23;;
69769;SDS011;57282;52.514;13.458;2022-12-04T14:23:46;61.20;;;19.58;;
69769;SDS011;57282;52.514;13.458;2022-12-04T14:26:19;58.28;;;19.23;;
69769;SDS011;57282;52.514;13.458;2022-12-04T14:28:49;59.85;;;19.35;;
69769;SDS011;57282;52.514;13.458;2022-12-04T14:31:19;60.93;;;18.20;;
69769;SDS011;57282;52.514;13.458;2022-12-04T14:33:57;58.00;;;19.30;;
69769;SDS011;57282;52.514;13.458;2022-12-04T14:36:29;58.58;;;18.20;;
69769;SDS011;57282;52.514;13.458;2022-12-04T14:39:03;54.08;;;18.48;;
69769;SDS011;57282;52.514;13.458;2022-12-04T14:41:38;52.20;;;18.55;;
69769;SDS011;57282;52.514;13.458;2022-12-04T14:44:05;64.13;;;21.80;;
69769;SDS011;57282;52.514;13.458;2022-12-04T14:46:35;54.95;;;19.75;;
69769;SDS011;57282;52.514;13.458;2022-12-04T14:49:15;65.03;;;20.48;;
69769;SDS011;57282;52.514;13.458;2022-12-04T14:52:00;66.25;;;19.17;;